Česky Dansk Deutsch English Español Suomi Français Magyar Italiano Nederlands norsk Polski Português svenska Türkçe

 

Het Weer

Kotlas (Rusland)

15:00, 6 september 2008 (GMT)

NWNNE
WE
SWSSE
Home            
Kotlas Syktyvkar Tot'Ma Ust'- Kulom Vologda Arhangel'Sk Nizhny Novgorod/Strigino Kazan' Perm'/Bolshoe Savino Ulyanovsk Tver Moscow / Sheremet'Ye Moscow / Domodedovo Moscow / Vnukovo Ufa Joensuu St. Peterburg Penza Samara Ekaterinburg Savonlinna Suomussalmi Lappeenranta

Om een weerknop op uw website of weblog te plaatsen, copieer onderstaande code en plak die in uw pagina. In het eerste vakje staat HTML-code, in het tweede vakje UBB-code.


Add to Google

Details

Wind speed:3 bf, 7.8 kn, 4 m/s, 8.9 miles/h, 14.4 km/h
Wind direction:SSE, 150°
Visibility: 6000 m, 6.0 km, 19685 ft, 3.7 miles
Clouds:Ein wenig bewölkt at 20000 ft, 6096 m
Durchbrochene Bewölkung at 10000 ft, 3048 m
Het Weer:moderate haze
Temperature:29°C, 84°F
Atmospheric pressure:1015 hPa, 761.3 mmHg, 29.97 inHg, 1.002 atm
METAR:ULAK 061500Z 15004MPS 6000 HZ FEW200 BKN100 29/00 Q1015 XNOSIL

Snelkoppelingen

Actuele weersinformatie van de hele wereld. Voeg locaties toe met het plus (+) symbool. Deze snelkoppelingen kunnen worden toegevoegd aan Google.

Lid van de Technetium groep

website free tracking
StatCounter NetStat W3C Validator

13-11-2019 06:36:33
astro.technetium.be money.technetium.be phote.technetium.be tafeltennistafel.technetium.be www.ligfiets.net